Time;durP1;ratioP1;P1;durP2;ratioP2;P2;SDS_P1;SDS_P2;PMS_P1;PMS_P2;Temp;Humidity;BMP_temperature;BMP_pressure;BME280_temperature;BME280_humidity;BME280_pressure;Samples;Min_cycle;Max_cycle;Signal;HPM_P1;HPM_P2
2022/11/29 00:00:41;;;;;;;17.02;7.40;;;8.60;99.90;;;;;;5053036;28;20025;-63
2022/11/29 00:03:06;;;;;;;20.85;6.72;;;8.60;99.90;;;;;;5052930;28;20503;-63
2022/11/29 00:05:35;;;;;;;19.65;6.40;;;8.70;99.90;;;;;;5052365;28;20025;-63
2022/11/29 00:08:02;;;;;;;22.70;6.30;;;8.60;99.90;;;;;;5052761;28;20493;-64
2022/11/29 00:10:28;;;;;;;24.38;11.02;;;8.60;99.90;;;;;;5052529;28;20547;-63
2022/11/29 00:12:53;;;;;;;23.27;8.32;;;8.60;99.90;;;;;;5052996;28;20025;-63
2022/11/29 00:15:19;;;;;;;17.25;6.63;;;8.70;99.90;;;;;;5053069;28;20036;-64
2022/11/29 00:17:45;;;;;;;16.10;5.85;;;8.70;99.90;;;;;;5052918;28;20017;-64
2022/11/29 00:20:11;;;;;;;16.85;6.03;;;8.70;99.90;;;;;;5052878;28;20025;-63
2022/11/29 00:22:37;;;;;;;16.75;5.70;;;8.80;99.90;;;;;;5052664;28;20020;-64
2022/11/29 00:25:04;;;;;;;18.25;5.28;;;8.70;99.90;;;;;;5052787;28;20029;-63
2022/11/29 00:27:30;;;;;;;24.13;5.28;;;8.60;99.90;;;;;;5052633;28;20029;-63
2022/11/29 00:29:56;;;;;;;14.85;4.80;;;8.60;99.90;;;;;;5053030;28;20033;-64
2022/11/29 00:32:21;;;;;;;13.95;4.45;;;8.60;99.90;;;;;;5052384;28;20477;-63
2022/11/29 00:34:47;;;;;;;19.02;6.03;;;8.80;99.90;;;;;;5052553;28;20029;-64
2022/11/29 00:37:13;;;;;;;15.38;4.57;;;8.80;99.90;;;;;;5052493;28;20035;-64
2022/11/29 00:39:39;;;;;;;12.25;5.07;;;8.80;99.90;;;;;;5051556;28;20524;-63
2022/11/29 00:42:05;;;;;;;17.55;5.07;;;9.00;99.90;;;;;;5052437;28;20025;-63
2022/11/29 00:44:31;;;;;;;18.98;5.95;;;9.00;99.90;;;;;;5051962;28;20025;-62
2022/11/29 00:46:57;;;;;;;17.65;5.75;;;9.10;99.90;;;;;;5052467;28;20082;-64
2022/11/29 00:49:22;;;;;;;17.80;5.63;;;9.10;99.90;;;;;;5052222;28;20098;-63
2022/11/29 00:51:48;;;;;;;15.30;5.43;;;9.10;99.90;;;;;;5052589;28;20039;-64
2022/11/29 00:54:15;;;;;;;15.38;5.25;;;9.10;99.90;;;;;;5052269;28;20055;-63
2022/11/29 00:56:42;;;;;;;13.10;5.00;;;9.20;99.90;;;;;;5052258;28;20029;-63
2022/11/29 00:59:07;;;;;;;17.90;5.10;;;9.20;99.90;;;;;;5052570;28;20021;-63
2022/11/29 01:01:33;;;;;;;10.85;4.03;;;9.20;99.90;;;;;;5051584;28;20132;-63
2022/11/29 01:04:00;;;;;;;14.07;3.88;;;9.20;99.90;;;;;;5050518;28;20141;-63
2022/11/29 01:06:26;;;;;;;13.93;3.60;;;9.10;99.90;;;;;;5051847;28;20104;-63
2022/11/29 01:08:52;;;;;;;10.70;3.45;;;9.10;99.90;;;;;;5050674;28;20101;-63
2022/11/29 01:11:23;;;;;;;10.68;3.22;;;9.10;99.90;;;;;;5051095;28;20482;-63
2022/11/29 01:13:50;;;;;;;11.80;3.33;;;9.30;99.90;;;;;;5051982;28;20498;-63
2022/11/29 01:16:16;;;;;;;11.85;4.10;;;9.50;99.90;;;;;;5051201;28;20029;-64
2022/11/29 01:18:42;;;;;;;11.50;3.22;;;9.50;99.90;;;;;;5051672;28;20052;-64
2022/11/29 01:21:20;;;;;;;9.18;2.92;;;9.60;99.90;;;;;;5051742;28;20541;-64
2022/11/29 01:23:47;;;;;;;9.32;3.17;;;9.50;99.90;;;;;;5052481;28;20032;-64
2022/11/29 01:26:19;;;;;;;12.70;3.78;;;9.50;99.90;;;;;;5051935;28;20481;-64
2022/11/29 01:28:46;;;;;;;10.55;3.30;;;9.40;99.90;;;;;;5050149;28;20398;-64
2022/11/29 01:31:15;;;;;;;9.48;3.25;;;9.40;99.90;;;;;;5051741;28;20112;-63
2022/11/29 01:33:41;;;;;;;8.85;2.95;;;9.50;99.90;;;;;;5051719;28;20025;-63
2022/11/29 01:36:08;;;;;;;9.20;2.75;;;9.40;99.90;;;;;;5051623;28;20024;-64
2022/11/29 01:38:35;;;;;;;12.57;2.78;;;9.20;99.90;;;;;;5051800;28;20032;-64
2022/11/29 01:41:06;;;;;;;11.50;3.10;;;9.10;99.90;;;;;;5051556;28;20053;-64
2022/11/29 01:43:33;;;;;;;13.50;3.72;;;9.00;99.90;;;;;;5051285;28;20029;-64
2022/11/29 01:45:59;;;;;;;12.70;3.65;;;9.10;99.90;;;;;;5052106;28;20032;-64
2022/11/29 01:48:28;;;;;;;13.75;3.83;;;9.10;99.90;;;;;;5051482;28;20385;-63
2022/11/29 01:50:59;;;;;;;17.25;3.53;;;9.10;99.90;;;;;;5050169;28;20044;-63
2022/11/29 01:53:25;;;;;;;16.98;3.75;;;9.10;99.90;;;;;;5051595;28;20447;-64
2022/11/29 01:55:59;;;;;;;12.52;3.38;;;9.00;99.90;;;;;;5051908;28;20493;-64
2022/11/29 01:58:25;;;;;;;17.17;3.63;;;8.90;99.90;;;;;;5051097;28;20021;-64
2022/11/29 02:00:51;;;;;;;12.32;3.33;;;8.80;99.90;;;;;;5051246;28;20407;-63
2022/11/29 02:03:18;;;;;;;17.00;3.45;;;8.60;99.90;;;;;;5051645;28;20042;-64
2022/11/29 02:05:49;;;;;;;13.85;2.90;;;8.40;99.90;;;;;;5051551;28;20032;-63
2022/11/29 02:08:28;;;;;;;15.38;3.20;;;8.40;99.90;;;;;;5051297;28;20094;-63
2022/11/29 02:11:03;;;;;;;11.98;3.00;;;8.20;99.90;;;;;;5051432;28;20045;-63
2022/11/29 02:14:06;;;;;;;12.43;2.92;;;8.20;99.90;;;;;;5051086;28;20021;-63
2022/11/29 02:16:59;;;;;;;15.80;2.97;;;8.20;99.90;;;;;;5049856;28;20465;-63
2022/11/29 02:19:30;;;;;;;17.63;3.30;;;8.20;99.90;;;;;;5050452;28;20021;-63
2022/11/29 02:22:09;;;;;;;17.55;3.53;;;8.60;99.90;;;;;;5051526;28;20025;-64
2022/11/29 02:25:03;;;;;;;14.75;3.20;;;8.60;99.90;;;;;;5050628;28;20389;-64
2022/11/29 02:28:10;;;;;;;9.98;2.80;;;8.70;99.90;;;;;;5050340;28;20029;-62
2022/11/29 02:31:17;;;;;;;10.40;2.83;;;8.70;99.90;;;;;;5045774;28;20084;-64
2022/11/29 02:33:58;;;;;;;15.32;3.25;;;8.70;99.90;;;;;;5010922;28;20068;-63
2022/11/29 02:36:46;;;;;;;13.75;3.47;;;8.80;99.90;;;;;;5013337;28;20056;-63
2022/11/29 02:39:33;;;;;;;14.82;2.85;;;8.70;99.90;;;;;;5012223;28;20045;-64
2022/11/29 02:41:59;;;;;;;14.40;3.80;;;8.70;99.90;;;;;;5011835;28;20104;-63
2022/11/29 02:44:36;;;;;;;15.98;3.92;;;8.80;99.90;;;;;;4995849;28;20483;-64
2022/11/29 02:47:16;;;;;;;16.25;4.72;;;8.80;99.90;;;;;;5012071;28;20546;-63
2022/11/29 02:49:44;;;;;;;13.65;4.10;;;8.80;99.90;;;;;;5012189;28;20380;-64
2022/11/29 02:52:53;;;;;;;18.92;5.35;;;8.90;99.90;;;;;;5012529;28;20045;-64
2022/11/29 02:55:50;;;;;;;14.75;5.07;;;8.90;99.90;;;;;;4973407;28;20065;-64
2022/11/29 02:58:37;;;;;;;14.70;5.63;;;8.90;99.90;;;;;;4973387;28;20114;-63
2022/11/29 03:01:43;;;;;;;15.20;5.97;;;8.90;99.90;;;;;;4973183;28;20035;-63
2022/11/29 03:04:44;;;;;;;17.08;5.35;;;8.90;99.90;;;;;;4988555;28;20131;-64
2022/11/29 03:07:28;;;;;;;14.25;5.35;;;8.90;99.90;;;;;;5010745;28;20448;-64
2022/11/29 03:10:04;;;;;;;16.48;6.13;;;8.90;99.90;;;;;;5012719;28;20064;-64
2022/11/29 03:12:48;;;;;;;15.85;5.00;;;9.00;99.90;;;;;;5012179;28;20034;-63
2022/11/29 03:15:31;;;;;;;13.52;4.30;;;9.00;99.90;;;;;;5012275;28;20509;-63
2022/11/29 03:18:13;;;;;;;9.60;3.22;;;9.00;99.90;;;;;;5012110;28;20045;-63
2022/11/29 03:20:50;;;;;;;16.27;4.10;;;9.00;99.90;;;;;;5012338;28;20441;-64
2022/11/29 03:23:23;;;;;;;9.05;3.53;;;9.00;99.90;;;;;;5012261;28;20033;-64
2022/11/29 03:26:12;;;;;;;18.27;3.92;;;9.10;99.90;;;;;;5011791;28;20572;-64
2022/11/29 03:28:59;;;;;;;17.50;4.18;;;9.00;99.90;;;;;;5012402;28;20018;-64
2022/11/29 03:31:54;;;;;;;14.10;3.92;;;9.00;99.90;;;;;;5017275;28;20409;-64
2022/11/29 03:34:28;;;;;;;17.17;3.85;;;8.90;99.90;;;;;;5032647;28;20083;-64
2022/11/29 03:36:57;;;;;;;14.73;4.32;;;8.80;99.90;;;;;;5049492;28;20537;-64
2022/11/29 03:39:44;;;;;;;12.15;3.97;;;8.70;99.90;;;;;;5053322;28;20545;-64
2022/11/29 03:42:26;;;;;;;11.60;3.45;;;8.70;99.90;;;;;;5053741;28;20040;-64
2022/11/29 03:45:01;;;;;;;11.32;3.50;;;8.80;99.90;;;;;;5052243;28;20075;-64
2022/11/29 03:47:34;;;;;;;12.77;4.00;;;8.90;99.90;;;;;;5053444;28;20021;-63
2022/11/29 03:50:06;;;;;;;9.85;3.30;;;8.90;99.90;;;;;;5053367;28;20033;-64
2022/11/29 03:53:01;;;;;;;12.43;3.83;;;9.00;99.90;;;;;;5053598;28;20035;-64
2022/11/29 03:55:44;;;;;;;15.30;5.07;;;9.10;99.90;;;;;;5052928;28;20036;-64
2022/11/29 03:58:32;;;;;;;12.65;3.25;;;9.00;99.90;;;;;;5053279;28;20020;-64
2022/11/29 04:01:10;;;;;;;9.73;3.08;;;9.00;99.90;;;;;;5030747;28;20152;-64
2022/11/29 04:04:03;;;;;;;9.52;2.60;;;9.00;99.90;;;;;;5032034;28;20109;-64
2022/11/29 04:06:40;;;;;;;9.77;2.78;;;9.10;99.90;;;;;;5031229;28;20037;-64
2022/11/29 04:09:17;;;;;;;12.25;4.28;;;9.10;99.90;;;;;;5030677;28;20052;-64
2022/11/29 04:11:53;;;;;;;11.88;4.07;;;8.90;99.90;;;;;;5030983;28;20044;-64
2022/11/29 04:14:45;;;;;;;11.73;5.07;;;8.80;99.90;;;;;;5030792;28;20068;-64
2022/11/29 04:17:35;;;;;;;7.35;3.03;;;8.70;99.90;;;;;;4972141;28;20159;-64
2022/11/29 04:20:37;;;;;;;13.80;3.80;;;8.60;99.90;;;;;;4972355;28;20061;-64
2022/11/29 04:23:20;;;;;;;12.73;3.45;;;8.50;99.90;;;;;;4971689;28;20034;-64
2022/11/29 04:26:04;;;;;;;15.70;3.67;;;8.40;99.90;;;;;;4972054;28;20043;-64
2022/11/29 04:28:57;;;;;;;14.82;3.65;;;8.40;99.90;;;;;;4971713;28;20035;-64
2022/11/29 04:31:22;;;;;;;15.02;3.55;;;8.40;99.90;;;;;;4970348;28;20051;-61
2022/11/29 04:34:18;;;;;;;14.35;3.50;;;8.40;99.90;;;;;;4971361;28;20039;-64
2022/11/29 04:36:59;;;;;;;34.78;21.60;;;8.50;99.90;;;;;;4971495;28;20154;-63
2022/11/29 04:39:36;;;;;;;40.15;22.70;;;8.60;99.90;;;;;;4951796;29;20030;-64
2022/11/29 04:42:13;;;;;;;55.10;32.15;;;8.50;99.90;;;;;;4951815;29;20138;-64
2022/11/29 04:45:08;;;;;;;29.65;15.10;;;8.50;99.90;;;;;;4951769;28;20472;-62
2022/11/29 04:48:09;;;;;;;25.85;12.02;;;8.50;99.90;;;;;;4951703;29;20076;-64
2022/11/29 04:50:58;;;;;;;19.63;8.43;;;8.40;99.90;;;;;;4952249;29;20063;-64
2022/11/29 04:53:42;;;;;;;26.48;13.18;;;8.40;99.90;;;;;;4971460;28;20071;-64
2022/11/29 04:56:36;;;;;;;41.03;24.00;;;8.40;99.90;;;;;;5032042;28;20075;-64
2022/11/29 04:59:12;;;;;;;75.90;51.63;;;8.50;99.90;;;;;;5032175;28;20041;-64
2022/11/29 05:01:56;;;;;;;53.22;41.28;;;8.50;99.90;;;;;;5044436;28;20116;-64
2022/11/29 05:04:40;;;;;;;50.30;30.88;;;8.50;99.90;;;;;;5052454;28;20033;-64
2022/11/29 05:07:12;;;;;;;27.17;18.45;;;8.40;99.90;;;;;;5051748;28;20056;-64
2022/11/29 05:09:54;;;;;;;31.98;20.67;;;8.60;99.90;;;;;;5051952;28;20040;-64
2022/11/29 05:12:42;;;;;;;32.65;19.23;;;8.60;99.90;;;;;;5051955;28;20395;-64
2022/11/29 05:15:25;;;;;;;34.08;21.08;;;8.60;99.90;;;;;;5029722;28;20045;-64
2022/11/29 05:17:54;;;;;;;30.83;17.90;;;8.60;99.90;;;;;;5029867;28;20103;-63
2022/11/29 05:20:44;;;;;;;28.27;13.95;;;8.70;99.90;;;;;;5029831;28;20323;-64
2022/11/29 05:23:37;;;;;;;20.35;9.25;;;8.60;99.90;;;;;;5029690;28;20071;-64
2022/11/29 05:26:15;;;;;;;35.33;18.23;;;8.60;99.90;;;;;;5029733;28;20196;-64
2022/11/29 05:29:03;;;;;;;33.03;19.33;;;8.60;99.90;;;;;;5029649;28;20029;-64
2022/11/29 05:31:55;;;;;;;17.33;8.50;;;8.40;99.90;;;;;;5029113;28;20078;-64
2022/11/29 05:34:53;;;;;;;12.48;5.45;;;8.50;99.90;;;;;;5029641;28;20026;-64
2022/11/29 05:37:40;;;;;;;15.35;5.63;;;8.60;99.90;;;;;;5029225;28;20149;-64
2022/11/29 05:40:12;;;;;;;17.42;9.98;;;8.60;99.90;;;;;;5029706;28;20079;-63
2022/11/29 05:42:38;;;;;;;20.08;11.23;;;8.60;99.90;;;;;;5029556;28;20033;-64
2022/11/29 05:45:46;;;;;;;16.08;9.10;;;8.50;99.90;;;;;;5029536;28;20034;-64
2022/11/29 05:48:26;;;;;;;17.67;11.57;;;8.60;99.90;;;;;;4989750;28;20049;-64
2022/11/29 05:51:20;;;;;;;16.73;9.75;;;8.50;99.90;;;;;;4989635;28;20064;-63
2022/11/29 05:54:12;;;;;;;24.95;11.90;;;8.60;99.90;;;;;;5009674;28;20030;-64
2022/11/29 05:57:05;;;;;;;15.27;9.85;;;8.60;99.90;;;;;;5009528;28;20030;-64
2022/11/29 05:59:35;;;;;;;17.20;8.60;;;8.60;99.90;;;;;;5009690;28;20521;-64
2022/11/29 06:02:33;;;;;;;32.10;14.40;;;8.70;99.90;;;;;;5024941;28;20043;-64
2022/11/29 06:05:16;;;;;;;21.70;11.85;;;8.50;99.90;;;;;;5026154;28;20063;-63
2022/11/29 06:08:07;;;;;;;14.20;8.73;;;8.40;99.90;;;;;;5029197;28;20481;-64
2022/11/29 06:10:38;;;;;;;17.73;9.25;;;8.50;99.90;;;;;;5032713;28;20041;-64
2022/11/29 06:13:35;;;;;;;19.58;10.35;;;8.50;99.90;;;;;;5032089;28;20030;-64
2022/11/29 06:16:15;;;;;;;19.80;10.35;;;8.30;99.90;;;;;;5033073;28;20033;-64
2022/11/29 06:19:02;;;;;;;17.27;9.50;;;8.20;99.90;;;;;;5032224;28;20168;-64
2022/11/29 06:21:47;;;;;;;16.75;8.65;;;8.30;99.90;;;;;;5032524;28;20036;-63
2022/11/29 06:24:33;;;;;;;13.60;7.43;;;8.50;99.90;;;;;;5038792;28;20029;-64
2022/11/29 06:27:11;;;;;;;24.02;10.13;;;8.60;99.90;;;;;;5054917;28;20041;-64
2022/11/29 06:29:55;;;;;;;12.15;7.38;;;8.50;99.90;;;;;;5055295;28;20043;-64
2022/11/29 06:33:01;;;;;;;26.60;11.50;;;8.50;99.90;;;;;;5055012;28;20401;-64
2022/11/29 06:35:34;;;;;;;19.90;11.07;;;8.40;99.90;;;;;;5054298;28;20084;-64
2022/11/29 06:38:19;;;;;;;24.27;11.10;;;8.20;99.90;;;;;;5055239;28;20032;-64
2022/11/29 06:40:45;;;;;;;17.02;9.43;;;8.30;99.90;;;;;;5055080;28;20048;-64
2022/11/29 06:43:11;;;;;;;18.33;10.25;;;8.40;99.90;;;;;;5054787;28;20398;-63
2022/11/29 06:45:42;;;;;;;27.27;12.15;;;8.30;99.90;;;;;;5054989;28;20024;-63
2022/11/29 06:48:11;;;;;;;22.08;10.60;;;8.40;99.90;;;;;;5054223;28;20024;-64
2022/11/29 06:50:49;;;;;;;15.60;8.40;;;8.40;99.90;;;;;;5054909;28;20029;-64
2022/11/29 06:53:36;;;;;;;15.40;9.10;;;8.40;99.90;;;;;;5054398;28;20493;-64
2022/11/29 06:56:07;;;;;;;27.42;11.80;;;8.50;99.90;;;;;;5054642;28;20036;-64
2022/11/29 06:58:48;;;;;;;15.80;9.15;;;8.40;99.90;;;;;;5054537;28;20032;-63
2022/11/29 07:01:32;;;;;;;16.73;9.40;;;8.50;99.90;;;;;;5054171;28;20113;-64
2022/11/29 07:04:32;;;;;;;11.15;7.10;;;8.50;99.90;;;;;;5053990;28;20086;-63
2022/11/29 07:06:58;;;;;;;22.65;10.57;;;8.80;99.90;;;;;;5054165;28;20033;-64
2022/11/29 07:09:33;;;;;;;16.65;8.30;;;8.50;99.90;;;;;;5053983;28;20452;-63
2022/11/29 07:11:59;;;;;;;18.27;9.82;;;8.40;99.90;;;;;;5054512;28;20039;-64
2022/11/29 07:14:25;;;;;;;21.25;10.10;;;8.20;99.90;;;;;;5054309;28;20025;-63
2022/11/29 07:17:20;;;;;;;18.70;10.63;;;8.10;99.90;;;;;;5053688;28;20041;-64
2022/11/29 07:19:58;;;;;;;12.75;7.47;;;8.00;99.90;;;;;;5053984;28;20500;-63
2022/11/29 07:22:43;;;;;;;11.05;6.38;;;8.10;99.90;;;;;;5053923;28;20100;-63
2022/11/29 07:25:18;;;;;;;27.23;11.13;;;8.20;99.90;;;;;;5053182;28;20025;-63
2022/11/29 07:27:52;;;;;;;13.10;7.45;;;8.20;99.90;;;;;;5053095;28;20086;-64
2022/11/29 07:30:21;;;;;;;16.30;8.50;;;8.30;99.90;;;;;;5053449;28;20482;-64
2022/11/29 07:33:05;;;;;;;15.63;9.27;;;8.30;99.90;;;;;;5053233;28;20029;-63
2022/11/29 07:35:50;;;;;;;22.48;11.65;;;8.30;99.90;;;;;;5053777;28;20047;-63
2022/11/29 07:38:18;;;;;;;21.67;12.40;;;8.40;99.90;;;;;;5053394;28;20095;-64
2022/11/29 07:40:59;;;;;;;19.65;9.05;;;8.40;99.90;;;;;;5053039;28;20045;-62
2022/11/29 07:43:40;;;;;;;26.52;11.27;;;8.50;99.90;;;;;;5054051;28;20037;-62
2022/11/29 07:46:06;;;;;;;14.63;7.63;;;8.50;99.90;;;;;;5053135;28;20035;-63
2022/11/29 07:48:31;;;;;;;15.20;8.63;;;8.50;99.90;;;;;;5053348;28;20028;-64
2022/11/29 07:50:57;;;;;;;12.68;6.78;;;8.50;99.90;;;;;;5053199;28;20045;-64
2022/11/29 07:53:23;;;;;;;19.88;10.63;;;8.50;99.90;;;;;;5053703;28;20025;-64
2022/11/29 07:55:49;;;;;;;17.40;8.30;;;8.50;99.90;;;;;;5053403;28;20061;-64
2022/11/29 07:58:16;;;;;;;18.77;10.95;;;8.50;99.90;;;;;;5053202;28;20078;-63
2022/11/29 08:00:43;;;;;;;30.85;14.45;;;8.40;99.90;;;;;;5052933;28;20032;-64
2022/11/29 08:03:09;;;;;;;29.83;19.02;;;8.30;99.90;;;;;;5053616;28;20037;-64
2022/11/29 08:05:39;;;;;;;27.52;16.95;;;8.30;99.90;;;;;;5053002;28;20028;-63
2022/11/29 08:08:06;;;;;;;26.23;15.82;;;8.40;99.90;;;;;;5053342;28;20514;-64
2022/11/29 08:10:33;;;;;;;23.35;14.27;;;8.60;99.90;;;;;;5053415;28;20489;-64
2022/11/29 08:12:58;;;;;;;18.10;12.05;;;8.90;99.90;;;;;;5053362;28;20396;-63
2022/11/29 08:15:24;;;;;;;18.30;10.80;;;9.20;99.90;;;;;;5052578;28;20096;-63
2022/11/29 08:17:51;;;;;;;15.98;8.43;;;9.80;99.90;;;;;;5053084;28;20394;-63
2022/11/29 08:20:18;;;;;;;12.68;6.28;;;10.80;99.90;;;;;;5052743;28;20066;-63
2022/11/29 08:22:43;;;;;;;10.88;5.22;;;10.20;99.90;;;;;;5053447;28;20024;-63
2022/11/29 08:25:10;;;;;;;15.02;7.47;;;10.30;99.90;;;;;;5053218;28;20024;-63
2022/11/29 08:27:36;;;;;;;10.52;6.50;;;10.20;99.90;;;;;;5052908;28;20485;-63
2022/11/29 08:30:04;;;;;;;13.57;6.85;;;10.70;99.90;;;;;;5052637;28;20025;-64
2022/11/29 08:32:30;;;;;;;15.15;8.15;;;11.90;99.90;;;;;;5052207;28;20056;-63
2022/11/29 08:34:56;;;;;;;13.52;7.68;;;13.50;99.90;;;;;;5052585;28;20033;-64
2022/11/29 08:37:21;;;;;;;10.63;5.30;;;14.60;99.90;;;;;;5052770;28;20025;-64
2022/11/29 08:39:47;;;;;;;10.77;5.63;;;12.40;99.90;;;;;;5052539;28;20482;-63
2022/11/29 08:42:13;;;;;;;10.50;5.57;;;12.00;99.90;;;;;;5052377;28;20033;-64
2022/11/29 08:44:39;;;;;;;10.25;5.97;;;11.20;99.90;;;;;;5052153;28;20477;-64
2022/11/29 08:50:01;;;;;;;10.90;4.93;;;10.80;99.90;;;;;;5051355;28;20039;-64
2022/11/29 08:55:21;;;;;;;13.30;5.90;;;10.60;99.90;;;;;;5052434;28;20092;-64
2022/11/29 08:57:48;;;;;;;11.10;5.40;;;10.50;99.90;;;;;;5052312;28;20040;-64
2022/11/29 09:00:15;;;;;;;15.18;5.72;;;10.50;99.90;;;;;;5052060;28;20036;-64
2022/11/29 09:02:41;;;;;;;9.38;4.68;;;13.20;99.90;;;;;;5052320;28;20086;-64
2022/11/29 09:05:08;;;;;;;14.38;5.72;;;15.40;99.90;;;;;;5052007;28;20028;-64
2022/11/29 09:07:34;;;;;;;8.77;4.68;;;16.60;99.90;;;;;;5052536;28;20041;-63
2022/11/29 09:10:04;;;;;;;9.13;4.65;;;17.40;99.90;;;;;;5051942;28;20076;-64
2022/11/29 09:12:31;;;;;;;9.60;4.60;;;15.50;99.90;;;;;;5052048;28;20017;-64
2022/11/29 09:14:57;;;;;;;6.97;4.25;;;14.60;99.90;;;;;;5051445;28;20021;-65
2022/11/29 09:17:23;;;;;;;8.23;4.60;;;16.30;99.90;;;;;;5051615;28;20086;-64
2022/11/29 09:19:49;;;;;;;6.57;3.70;;;18.10;99.90;;;;;;5051353;28;20096;-65
2022/11/29 09:22:14;;;;;;;7.38;3.88;;;18.60;99.90;;;;;;5052043;28;20044;-64
2022/11/29 09:24:40;;;;;;;7.47;3.80;;;16.00;99.90;;;;;;5051643;28;20428;-64
2022/11/29 09:27:06;;;;;;;8.80;3.80;;;14.30;99.90;;;;;;5051741;28;20025;-64
2022/11/29 09:29:32;;;;;;;9.48;3.78;;;14.20;99.90;;;;;;5050855;28;20474;-64
2022/11/29 09:31:58;;;;;;;6.82;4.03;;;13.70;99.90;;;;;;5051601;28;20071;-64
2022/11/29 09:34:23;;;;;;;8.05;4.20;;;13.50;99.90;;;;;;5051493;28;20025;-64
2022/11/29 09:36:49;;;;;;;8.02;3.50;;;13.60;99.90;;;;;;5051716;28;20529;-62
2022/11/29 09:39:15;;;;;;;7.68;3.30;;;13.20;99.90;;;;;;5051685;28;20504;-64
2022/11/29 09:42:01;;;;;;;10.02;3.30;;;12.90;99.90;;;;;;5051110;28;20037;-64
2022/11/29 09:44:36;;;;;;;9.30;3.55;;;12.60;99.90;;;;;;5055480;28;20109;-63
2022/11/29 09:47:13;;;;;;;8.18;2.97;;;12.70;99.90;;;;;;5055309;28;20032;-63
2022/11/29 09:49:57;;;;;;;9.30;3.38;;;12.90;99.90;;;;;;5055396;28;20037;-63
2022/11/29 09:52:35;;;;;;;9.45;3.50;;;12.90;99.90;;;;;;5055191;28;20040;-64
2022/11/29 09:55:34;;;;;;;8.63;3.17;;;13.20;99.90;;;;;;5055191;28;20443;-64
2022/11/29 09:58:02;;;;;;;6.88;2.60;;;13.20;99.90;;;;;;5055097;28;20025;-63
2022/11/29 10:00:31;;;;;;;8.52;4.53;;;13.70;99.90;;;;;;5055089;28;20094;-63
2022/11/29 10:03:19;;;;;;;6.55;3.10;;;14.00;99.90;;;;;;5054995;28;20021;-64
2022/11/29 10:05:50;;;;;;;9.75;3.35;;;13.90;99.90;;;;;;5055254;28;20121;-63
2022/11/29 10:08:32;;;;;;;9.10;3.83;;;13.90;99.90;;;;;;5054507;28;20032;-64
2022/11/29 10:11:41;;;;;;;8.35;4.95;;;13.80;99.90;;;;;;5054696;28;20041;-64
2022/11/29 10:14:22;;;;;;;10.88;4.43;;;14.10;99.90;;;;;;5054553;28;20555;-63
2022/11/29 10:16:56;;;;;;;9.32;5.00;;;13.60;99.90;;;;;;5055358;28;20025;-62
2022/11/29 10:19:39;;;;;;;40.40;36.08;;;13.30;99.90;;;;;;5055703;28;20044;-63
2022/11/29 10:22:13;;;;;;;28.63;25.77;;;13.00;99.90;;;;;;5055324;28;20066;-63
2022/11/29 10:24:41;;;;;;;11.48;6.75;;;13.20;99.90;;;;;;5055528;28;20274;-64
2022/11/29 10:27:18;;;;;;;9.80;3.20;;;13.30;99.90;;;;;;5054729;28;20029;-64
2022/11/29 10:29:47;;;;;;;18.00;9.85;;;13.00;99.90;;;;;;5055047;28;20048;-64
2022/11/29 10:32:14;;;;;;;11.80;6.95;;;13.20;99.90;;;;;;5055069;28;20462;-63
2022/11/29 10:34:42;;;;;;;60.47;54.83;;;13.20;99.90;;;;;;5054737;28;20027;-64
2022/11/29 10:37:13;;;;;;;10.23;3.45;;;13.20;99.90;;;;;;5055085;28;20501;-63
2022/11/29 10:39:49;;;;;;;6.85;2.63;;;13.10;99.90;;;;;;5051353;28;20693;-64
2022/11/29 10:45:21;;;;;;;10.85;3.55;;;13.50;99.90;;;;;;5053576;28;20083;-62
2022/11/29 10:47:48;;;;;;;8.93;3.35;;;13.70;99.90;;;;;;5054169;28;20028;-62
2022/11/29 10:50:22;;;;;;;10.35;4.03;;;13.70;99.90;;;;;;5053655;28;20044;-65
2022/11/29 10:52:48;;;;;;;7.35;2.83;;;13.90;99.90;;;;;;5052529;28;20060;-64
2022/11/29 10:55:16;;;;;;;8.90;2.70;;;14.40;99.90;;;;;;5053165;28;20065;-63
2022/11/29 10:58:08;;;;;;;21.35;15.13;;;14.20;99.90;;;;;;5054194;28;20018;-63
2022/11/29 11:00:50;;;;;;;9.88;4.00;;;13.90;99.90;;;;;;5053901;28;20025;-63
2022/11/29 11:03:27;;;;;;;22.15;15.30;;;14.20;99.90;;;;;;5054707;28;20025;-63
2022/11/29 11:06:12;;;;;;;8.38;3.70;;;14.80;99.90;;;;;;5054310;28;20017;-63
2022/11/29 11:08:42;;;;;;;43.38;19.30;;;15.70;99.90;;;;;;5054364;28;20032;-63
2022/11/29 11:11:08;;;;;;;8.60;3.33;;;16.00;99.90;;;;;;5053209;28;20029;-62
2022/11/29 11:13:35;;;;;;;81.32;32.22;;;16.60;99.90;;;;;;5053664;28;20032;-63
2022/11/29 11:16:31;;;;;;;660.45;325.05;;;17.80;99.90;;;;;;5052712;28;20401;-63
2022/11/29 11:18:57;;;;;;;389.48;346.85;;;17.10;99.90;;;;;;5048806;28;20071;-63
2022/11/29 11:21:26;;;;;;;46.45;42.00;;;17.10;99.90;;;;;;5053352;28;20033;-63
2022/11/29 11:24:01;;;;;;;59.05;54.15;;;17.30;99.90;;;;;;5053234;28;20025;-62
2022/11/29 11:26:41;;;;;;;65.57;59.97;;;16.80;99.90;;;;;;5053733;28;20013;-63
2022/11/29 11:29:20;;;;;;;10.15;3.40;;;16.90;99.90;;;;;;5053548;28;20108;-63
2022/11/29 11:32:20;;;;;;;10.05;3.80;;;15.90;99.90;;;;;;5053159;28;20477;-63
2022/11/29 11:34:54;;;;;;;8.20;3.83;;;15.50;99.90;;;;;;5053365;28;20417;-63
2022/11/29 11:37:34;;;;;;;8.02;2.90;;;15.50;99.90;;;;;;5053493;28;20146;-64
2022/11/29 11:40:24;;;;;;;9.25;2.80;;;16.50;99.90;;;;;;5053227;28;20134;-64
2022/11/29 11:42:50;;;;;;;9.15;2.80;;;16.00;99.90;;;;;;5053378;28;20124;-64
2022/11/29 11:45:15;;;;;;;7.13;2.42;;;16.10;99.90;;;;;;5054122;28;20024;-64
2022/11/29 11:48:03;;;;;;;8.15;2.75;;;17.00;99.90;;;;;;5053601;28;20029;-63
2022/11/29 11:50:31;;;;;;;5.95;2.20;;;17.00;99.90;;;;;;5053683;28;20045;-64
2022/11/29 11:53:25;;;;;;;7.57;2.20;;;16.60;99.90;;;;;;5053002;28;20108;-64
2022/11/29 11:56:06;;;;;;;4.95;1.83;;;16.00;99.90;;;;;;5052245;28;20052;-64
2022/11/29 11:58:37;;;;;;;8.02;2.30;;;16.50;99.90;;;;;;5053322;28;20403;-63
2022/11/29 12:01:11;;;;;;;6.60;2.03;;;16.70;99.90;;;;;;5053011;28;20040;-64
2022/11/29 12:03:48;;;;;;;7.32;2.25;;;17.10;99.90;;;;;;5053124;28;20482;-64
2022/11/29 12:06:47;;;;;;;8.25;2.40;;;17.50;99.90;;;;;;5052068;28;20025;-63
2022/11/29 12:09:25;;;;;;;5.55;2.08;;;18.50;99.90;;;;;;5053562;28;20036;-64
2022/11/29 12:12:16;;;;;;;6.35;2.10;;;18.60;99.90;;;;;;5053132;28;20032;-64
2022/11/29 12:15:05;;;;;;;5.45;2.15;;;18.10;99.90;;;;;;5051268;28;20068;-64
2022/11/29 12:17:36;;;;;;;7.10;1.90;;;18.10;99.90;;;;;;5053100;28;20061;-64
2022/11/29 12:20:18;;;;;;;8.65;2.25;;;17.80;99.90;;;;;;5052729;28;20049;-64
2022/11/29 12:22:52;;;;;;;9.05;2.50;;;18.80;99.90;;;;;;5052838;28;20098;-64
2022/11/29 12:25:53;;;;;;;5.35;1.92;;;18.90;99.90;;;;;;5052923;28;20021;-63
2022/11/29 12:28:21;;;;;;;6.95;2.08;;;18.00;99.90;;;;;;5043604;28;20033;-65
2022/11/29 12:31:14;;;;;;;11.27;5.80;;;17.50;99.90;;;;;;5049686;28;20079;-63
2022/11/29 12:34:06;;;;;;;4.55;1.73;;;17.00;99.90;;;;;;5052003;28;20503;-63
2022/11/29 12:36:32;;;;;;;7.10;1.80;;;16.70;99.90;;;;;;5051823;28;20048;-64
2022/11/29 12:39:16;;;;;;;121.63;105.07;;;16.10;99.90;;;;;;5052205;28;20043;-64
2022/11/29 12:42:08;;;;;;;8.48;4.13;;;16.50;99.90;;;;;;5051892;28;20048;-64
2022/11/29 12:44:58;;;;;;;7.72;3.75;;;16.80;99.90;;;;;;5052359;28;20025;-64
2022/11/29 12:47:35;;;;;;;8.00;2.08;;;16.90;99.90;;;;;;5052046;28;20504;-64
2022/11/29 12:50:17;;;;;;;5.88;1.85;;;15.80;99.90;;;;;;5051899;28;20103;-64
2022/11/29 12:53:12;;;;;;;75.65;59.25;;;15.40;99.90;;;;;;5051887;28;20040;-64
2022/11/29 12:56:04;;;;;;;123.75;90.95;;;15.90;99.90;;;;;;5051947;28;20021;-65
2022/11/29 12:58:48;;;;;;;64.18;46.97;;;16.30;99.90;;;;;;5048759;28;20045;-64
2022/11/29 13:01:32;;;;;;;6.03;2.15;;;16.20;99.90;;;;;;5051599;28;20021;-65
2022/11/29 13:04:08;;;;;;;;;;;15.10;99.90;;;;;;5052451;28;20044;-64
2022/11/29 13:06:47;;;;;;;44.10;35.78;;;15.20;99.90;;;;;;5051654;28;19912;-64
2022/11/29 13:09:21;;;;;;;17.15;11.45;;;15.20;99.90;;;;;;5050898;28;20147;-63
2022/11/29 13:12:10;;;;;;;437.13;265.60;;;15.60;99.90;;;;;;5051673;28;20037;-62
2022/11/29 13:15:00;;;;;;;120.97;60.95;;;15.90;99.90;;;;;;5047773;28;20030;-63
2022/11/29 13:17:35;;;;;;;876.53;473.35;;;15.90;99.90;;;;;;5051866;28;20513;-63
2022/11/29 13:20:15;;;;;;;149.52;68.40;;;15.80;99.90;;;;;;5051146;28;20499;-63
2022/11/29 13:23:28;;;;;;;491.90;258.75;;;15.70;99.90;;;;;;5051750;28;20025;-64
2022/11/29 13:25:57;;;;;;;360.38;180.82;;;15.70;99.90;;;;;;5029495;28;20437;-63
2022/11/29 13:28:27;;;;;;;11.05;3.40;;;15.70;99.90;;;;;;5029514;28;20041;-63
2022/11/29 13:30:59;;;;;;;17.70;14.35;;;15.50;99.90;;;;;;5028861;28;20037;-64
2022/11/29 13:33:40;;;;;;;80.97;72.32;;;15.50;99.90;;;;;;5029850;28;20029;-64
2022/11/29 13:36:15;;;;;;;31.25;18.50;;;15.70;99.90;;;;;;5029690;28;20029;-64
2022/11/29 13:39:31;;;;;;;9.80;4.63;;;15.70;99.90;;;;;;5029598;28;20104;-63
2022/11/29 13:42:18;;;;;;;28.92;25.88;;;15.70;99.90;;;;;;4970942;28;20043;-63